TGL30C LICC-LCLK
Flight info
| Callsign | TGL30C |
|---|---|
| Flight time | 2h 17m |
| Altitude | 36000 |
| Route | PIMOR DCT DODEL DCT BELIX/N0426F370 DCT TITUS DCT EPALO DCT KPC DCT TOSKA DCT BONEK |
| Aircraft | A320/M-SDE3FGHIRWY/LB1 |
Departure
| Time | 2026-05-07 01:00 |
|---|---|
| Airport | Catania-Fontanarossa Airport (LICC) |
Arrival
| Time | 2026-05-07 03:18 |
|---|---|
| Airport | Larnaca International Airport (LCLK) |
| Time | Latitude | Longitude | Altitude | Speed | Heading |
|---|---|---|---|---|---|
| 2026-05-07 00:38 | 37.46948 | 15.06527 | 27 ft | 0 kts | 18° |
| 2026-05-07 00:48 | 37.46947 | 15.06527 | 26 ft | 1 kts | 18° |
| 2026-05-07 00:48 | 37.46933 | 15.06521 | 30 ft | 3 kts | 19° |
| 2026-05-07 00:49 | 37.46914 | 15.06512 | 28 ft | 3 kts | 19° |
| 2026-05-07 00:49 | 37.46895 | 15.06504 | 29 ft | 3 kts | 12° |
| 2026-05-07 00:49 | 37.46875 | 15.06500 | 30 ft | 3 kts | 359° |
| 2026-05-07 00:49 | 37.46856 | 15.06503 | 26 ft | 3 kts | 339° |
| 2026-05-07 00:50 | 37.46840 | 15.06514 | 27 ft | 3 kts | 301° |
| 2026-05-07 00:50 | 37.46835 | 15.06529 | 27 ft | 1 kts | 263° |
| 2026-05-07 00:50 | 37.46835 | 15.06530 | 27 ft | 0 kts | 263° |
| 2026-05-07 00:51 | 37.46836 | 15.06530 | 27 ft | 0 kts | 263° |
| 2026-05-07 00:53 | 37.46835 | 15.06530 | 27 ft | 0 kts | 263° |
| 2026-05-07 00:53 | 37.46835 | 15.06527 | 27 ft | 1 kts | 263° |
| 2026-05-07 00:53 | 37.46834 | 15.06517 | 27 ft | 1 kts | 263° |
| 2026-05-07 00:54 | 37.46834 | 15.06511 | 27 ft | 1 kts | 263° |
| 2026-05-07 00:54 | 37.46833 | 15.06501 | 27 ft | 1 kts | 263° |
| 2026-05-07 00:54 | 37.46832 | 15.06492 | 27 ft | 1 kts | 263° |
| 2026-05-07 00:54 | 37.46829 | 15.06454 | 27 ft | 8 kts | 263° |
| 2026-05-07 00:55 | 37.46821 | 15.06367 | 28 ft | 12 kts | 263° |
| 2026-05-07 00:55 | 37.46811 | 15.06247 | 31 ft | 15 kts | 264° |
| 2026-05-07 00:55 | 37.46801 | 15.06138 | 33 ft | 9 kts | 263° |
| 2026-05-07 00:55 | 37.46794 | 15.06064 | 34 ft | 8 kts | 264° |
| 2026-05-07 00:56 | 37.46789 | 15.05993 | 34 ft | 9 kts | 264° |
| 2026-05-07 00:56 | 37.46783 | 15.05920 | 35 ft | 7 kts | 264° |
| 2026-05-07 00:56 | 37.46779 | 15.05865 | 33 ft | 5 kts | 264° |
| 2026-05-07 00:56 | 37.46775 | 15.05825 | 37 ft | 6 kts | 263° |
| 2026-05-07 00:57 | 37.46768 | 15.05742 | 38 ft | 11 kts | 264° |
| 2026-05-07 00:57 | 37.46759 | 15.05634 | 38 ft | 14 kts | 264° |
| 2026-05-07 00:57 | 37.46744 | 15.05522 | 37 ft | 12 kts | 247° |
| 2026-05-07 00:57 | 37.46682 | 15.05465 | 39 ft | 11 kts | 189° |
| 2026-05-07 00:58 | 37.46612 | 15.05496 | 36 ft | 12 kts | 136° |
| 2026-05-07 00:58 | 37.46591 | 15.05579 | 34 ft | 0 kts | 82° |
| 2026-05-07 01:00 | 37.46613 | 15.05788 | 33 ft | 62 kts | 83° |
| 2026-05-07 01:00 | 37.46684 | 15.06603 | 30 ft | 123 kts | 84° |
| 2026-05-07 01:00 | 37.46798 | 15.07851 | 259 ft | 150 kts | 83° |
| 2026-05-07 01:00 | 37.46900 | 15.09144 | 946 ft | 147 kts | 79° |
| 2026-05-07 01:01 | 37.47061 | 15.10415 | 1597 ft | 147 kts | 80° |
| 2026-05-07 01:01 | 37.47241 | 15.11716 | 2010 ft | 159 kts | 81° |
| 2026-05-07 01:01 | 37.47446 | 15.13180 | 2197 ft | 180 kts | 81° |
| 2026-05-07 01:01 | 37.47673 | 15.14829 | 2408 ft | 203 kts | 82° |
| 2026-05-07 01:02 | 37.47929 | 15.16691 | 2750 ft | 229 kts | 82° |
| 2026-05-07 01:02 | 37.48215 | 15.18757 | 3292 ft | 248 kts | 83° |
| 2026-05-07 01:02 | 37.48515 | 15.20921 | 4146 ft | 254 kts | 84° |
| 2026-05-07 01:02 | 37.48823 | 15.23128 | 5058 ft | 258 kts | 85° |
| 2026-05-07 01:03 | 37.49137 | 15.25381 | 5897 ft | 265 kts | 85° |
| 2026-05-07 01:03 | 37.49461 | 15.27699 | 6678 ft | 273 kts | 85° |
| 2026-05-07 01:03 | 37.49791 | 15.30083 | 7428 ft | 279 kts | 85° |
| 2026-05-07 01:03 | 37.50127 | 15.32525 | 8206 ft | 286 kts | 85° |
| 2026-05-07 01:04 | 37.50470 | 15.35028 | 8963 ft | 294 kts | 85° |
| 2026-05-07 01:04 | 37.50827 | 15.37598 | 9723 ft | 301 kts | 85° |
| 2026-05-07 01:04 | 37.51192 | 15.40235 | 10339 ft | 314 kts | 85° |
| 2026-05-07 01:04 | 37.51574 | 15.43051 | 10605 ft | 338 kts | 84° |
| 2026-05-07 01:05 | 37.51983 | 15.46043 | 11078 ft | 352 kts | 84° |
| 2026-05-07 01:05 | 37.52407 | 15.49114 | 11762 ft | 360 kts | 84° |
| 2026-05-07 01:05 | 37.52840 | 15.52245 | 12459 ft | 366 kts | 83° |
| 2026-05-07 01:05 | 37.53279 | 15.55429 | 13160 ft | 372 kts | 83° |
| 2026-05-07 01:06 | 37.53720 | 15.58664 | 13849 ft | 378 kts | 83° |
| 2026-05-07 01:06 | 37.54168 | 15.61949 | 14479 ft | 383 kts | 83° |
| 2026-05-07 01:06 | 37.54619 | 15.65271 | 15084 ft | 387 kts | 82° |
| 2026-05-07 01:06 | 37.55076 | 15.68640 | 15687 ft | 392 kts | 82° |
| 2026-05-07 01:07 | 37.55537 | 15.72040 | 16336 ft | 396 kts | 82° |
| 2026-05-07 01:07 | 37.56002 | 15.75477 | 16989 ft | 400 kts | 82° |
| 2026-05-07 01:07 | 37.56468 | 15.78945 | 17626 ft | 403 kts | 82° |
| 2026-05-07 01:07 | 37.56935 | 15.82451 | 18264 ft | 407 kts | 82° |
| 2026-05-07 01:08 | 37.57404 | 15.85985 | 18824 ft | 410 kts | 83° |
| 2026-05-07 01:08 | 37.57811 | 15.89556 | 19403 ft | 413 kts | 85° |
| 2026-05-07 01:08 | 37.58137 | 15.93158 | 19970 ft | 415 kts | 86° |
| 2026-05-07 01:08 | 37.58417 | 15.96789 | 20535 ft | 417 kts | 87° |
| 2026-05-07 01:09 | 37.58678 | 16.00441 | 21088 ft | 419 kts | 87° |
| 2026-05-07 01:09 | 37.58943 | 16.04108 | 21663 ft | 421 kts | 87° |
| 2026-05-07 01:09 | 37.59224 | 16.07791 | 22216 ft | 423 kts | 87° |
| 2026-05-07 01:09 | 37.59520 | 16.11496 | 22773 ft | 426 kts | 87° |
| 2026-05-07 01:10 | 37.59823 | 16.15220 | 23309 ft | 428 kts | 88° |
| 2026-05-07 01:10 | 37.59873 | 16.18967 | 23780 ft | 427 kts | 97° |
| 2026-05-07 01:10 | 37.59441 | 16.22662 | 24177 ft | 426 kts | 107° |
| 2026-05-07 01:10 | 37.58674 | 16.26279 | 24555 ft | 429 kts | 109° |
| 2026-05-07 01:11 | 37.57896 | 16.29875 | 24921 ft | 433 kts | 109° |
| 2026-05-07 01:11 | 37.57093 | 16.33605 | 25286 ft | 438 kts | 109° |
| 2026-05-07 01:11 | 37.56307 | 16.37273 | 25666 ft | 440 kts | 108° |
| 2026-05-07 01:11 | 37.55506 | 16.41011 | 26058 ft | 444 kts | 108° |
| 2026-05-07 01:12 | 37.54688 | 16.44829 | 26425 ft | 447 kts | 108° |
| 2026-05-07 01:12 | 37.53873 | 16.48629 | 26780 ft | 451 kts | 108° |
| 2026-05-07 01:12 | 37.53046 | 16.52462 | 27120 ft | 455 kts | 108° |
| 2026-05-07 01:12 | 37.52213 | 16.56322 | 27466 ft | 459 kts | 108° |
| 2026-05-07 01:13 | 37.51375 | 16.60213 | 27810 ft | 462 kts | 108° |
| 2026-05-07 01:13 | 37.50530 | 16.64134 | 28145 ft | 466 kts | 108° |
| 2026-05-07 01:13 | 37.49673 | 16.68087 | 28487 ft | 470 kts | 108° |
| 2026-05-07 01:13 | 37.48805 | 16.72065 | 28835 ft | 472 kts | 107° |
| 2026-05-07 01:14 | 37.47931 | 16.76063 | 29211 ft | 475 kts | 107° |
| 2026-05-07 01:14 | 37.47053 | 16.80085 | 29545 ft | 478 kts | 107° |
| 2026-05-07 01:14 | 37.46170 | 16.84136 | 29864 ft | 482 kts | 107° |
| 2026-05-07 01:14 | 37.45279 | 16.88211 | 30158 ft | 485 kts | 107° |
| 2026-05-07 01:15 | 37.44376 | 16.92322 | 30388 ft | 489 kts | 107° |
| 2026-05-07 01:15 | 37.43464 | 16.96465 | 30598 ft | 494 kts | 107° |
| 2026-05-07 01:15 | 37.42543 | 17.00644 | 30800 ft | 498 kts | 107° |
| 2026-05-07 01:15 | 37.41614 | 17.04860 | 30995 ft | 502 kts | 107° |
| 2026-05-07 01:16 | 37.40679 | 17.09106 | 31227 ft | 505 kts | 107° |
| 2026-05-07 01:16 | 37.39734 | 17.13376 | 31445 ft | 509 kts | 107° |
| 2026-05-07 01:16 | 37.38777 | 17.17670 | 31699 ft | 511 kts | 107° |
| 2026-05-07 01:16 | 37.37812 | 17.21986 | 31916 ft | 514 kts | 107° |
| 2026-05-07 01:17 | 37.36842 | 17.26330 | 32130 ft | 518 kts | 106° |
| 2026-05-07 01:17 | 37.35884 | 17.30637 | 32359 ft | 521 kts | 106° |
| 2026-05-07 01:17 | 37.34893 | 17.35094 | 32610 ft | 524 kts | 106° |
| 2026-05-07 01:17 | 37.33907 | 17.39511 | 32857 ft | 526 kts | 106° |
| 2026-05-07 01:18 | 37.32913 | 17.43940 | 33138 ft | 528 kts | 106° |
| 2026-05-07 01:18 | 37.31898 | 17.48450 | 33413 ft | 530 kts | 106° |
| 2026-05-07 01:18 | 37.30892 | 17.52912 | 33670 ft | 532 kts | 106° |
| 2026-05-07 01:18 | 37.29877 | 17.57397 | 33915 ft | 535 kts | 106° |
| 2026-05-07 01:19 | 37.28860 | 17.61900 | 34148 ft | 537 kts | 106° |
| 2026-05-07 01:19 | 37.27839 | 17.66419 | 34399 ft | 538 kts | 106° |
| 2026-05-07 01:19 | 37.26816 | 17.70945 | 34678 ft | 539 kts | 106° |
| 2026-05-07 01:19 | 37.25790 | 17.75470 | 34966 ft | 539 kts | 106° |
| 2026-05-07 01:20 | 37.24756 | 17.79989 | 35310 ft | 538 kts | 106° |
| 2026-05-07 01:20 | 37.23722 | 17.84499 | 35592 ft | 538 kts | 106° |
| 2026-05-07 01:20 | 37.22690 | 17.89013 | 35853 ft | 538 kts | 106° |
| 2026-05-07 01:20 | 37.21656 | 17.93530 | 36008 ft | 539 kts | 106° |
| 2026-05-07 01:21 | 37.20621 | 17.98039 | 36047 ft | 536 kts | 106° |
| 2026-05-07 01:21 | 37.18558 | 18.07000 | 36033 ft | 534 kts | 107° |
| 2026-05-07 01:22 | 37.16490 | 18.15940 | 36044 ft | 534 kts | 106° |
| 2026-05-07 01:22 | 37.14419 | 18.24877 | 36037 ft | 534 kts | 107° |
| 2026-05-07 01:23 | 37.12335 | 18.33805 | 36036 ft | 534 kts | 107° |
| 2026-05-07 01:23 | 37.10244 | 18.42730 | 36043 ft | 534 kts | 107° |
| 2026-05-07 01:24 | 37.08148 | 18.51644 | 36061 ft | 533 kts | 106° |
| 2026-05-07 01:24 | 37.06053 | 18.60551 | 36057 ft | 533 kts | 106° |
| 2026-05-07 01:25 | 37.03951 | 18.69450 | 36052 ft | 533 kts | 106° |
| 2026-05-07 01:25 | 37.01844 | 18.78335 | 36054 ft | 533 kts | 106° |
| 2026-05-07 01:26 | 36.99728 | 18.87210 | 36071 ft | 532 kts | 106° |
| 2026-05-07 01:26 | 36.97606 | 18.96075 | 36071 ft | 532 kts | 106° |
| 2026-05-07 01:27 | 36.95457 | 19.04924 | 36068 ft | 532 kts | 107° |
| 2026-05-07 01:27 | 36.93211 | 19.13724 | 36063 ft | 531 kts | 107° |
| 2026-05-07 01:28 | 36.90925 | 19.22494 | 36069 ft | 530 kts | 107° |
| 2026-05-07 01:28 | 36.88640 | 19.31315 | 36082 ft | 530 kts | 107° |
| 2026-05-07 01:29 | 36.86392 | 19.40064 | 36076 ft | 529 kts | 107° |
| 2026-05-07 01:29 | 36.84124 | 19.48870 | 36083 ft | 529 kts | 107° |
| 2026-05-07 01:30 | 36.82243 | 19.56115 | 36089 ft | 527 kts | 107° |
| 2026-05-07 01:30 | 36.79977 | 19.64799 | 36076 ft | 527 kts | 107° |
| 2026-05-07 01:31 | 36.77686 | 19.73544 | 36072 ft | 526 kts | 107° |
| 2026-05-07 01:31 | 36.75419 | 19.82214 | 36083 ft | 526 kts | 107° |
| 2026-05-07 01:32 | 36.73135 | 19.90933 | 36075 ft | 525 kts | 107° |
| 2026-05-07 01:32 | 36.70857 | 19.99573 | 36082 ft | 524 kts | 107° |
| 2026-05-07 01:33 | 36.68572 | 20.08203 | 36078 ft | 524 kts | 107° |
| 2026-05-07 01:33 | 36.66278 | 20.16820 | 36098 ft | 524 kts | 107° |
| 2026-05-07 01:34 | 36.63981 | 20.25421 | 36094 ft | 523 kts | 107° |
| 2026-05-07 01:34 | 36.61685 | 20.34001 | 36093 ft | 522 kts | 107° |
| 2026-05-07 01:35 | 36.59389 | 20.42567 | 36087 ft | 521 kts | 107° |
| 2026-05-07 01:35 | 36.57086 | 20.51119 | 36100 ft | 521 kts | 107° |
| 2026-05-07 01:36 | 36.54779 | 20.59647 | 36115 ft | 520 kts | 107° |
| 2026-05-07 01:36 | 36.52477 | 20.68152 | 36097 ft | 518 kts | 107° |
| 2026-05-07 01:37 | 36.50174 | 20.76631 | 36101 ft | 517 kts | 107° |
| 2026-05-07 01:37 | 36.47870 | 20.85095 | 36112 ft | 516 kts | 107° |
| 2026-05-07 01:38 | 36.45567 | 20.93523 | 36111 ft | 514 kts | 107° |
| 2026-05-07 01:38 | 36.43280 | 21.01862 | 36109 ft | 513 kts | 107° |
| 2026-05-07 01:39 | 36.40967 | 21.10234 | 36106 ft | 512 kts | 107° |
| 2026-05-07 01:39 | 36.38640 | 21.18645 | 36115 ft | 511 kts | 107° |
| 2026-05-07 01:40 | 36.36333 | 21.26966 | 36120 ft | 509 kts | 107° |
| 2026-05-07 01:40 | 36.34027 | 21.35258 | 36119 ft | 508 kts | 107° |
| 2026-05-07 01:41 | 36.32323 | 21.43701 | 36115 ft | 504 kts | 97° |
| 2026-05-07 01:41 | 36.31023 | 21.52232 | 36110 ft | 503 kts | 97° |
| 2026-05-07 01:42 | 36.29705 | 21.60756 | 36102 ft | 503 kts | 97° |
| 2026-05-07 01:42 | 36.28379 | 21.69275 | 36098 ft | 503 kts | 97° |
| 2026-05-07 01:43 | 36.27040 | 21.77787 | 36099 ft | 503 kts | 98° |
| 2026-05-07 01:43 | 36.25696 | 21.86292 | 36120 ft | 502 kts | 98° |
| 2026-05-07 01:44 | 36.24356 | 21.94762 | 36122 ft | 500 kts | 98° |
| 2026-05-07 01:44 | 36.23012 | 22.03206 | 36118 ft | 499 kts | 98° |
| 2026-05-07 01:45 | 36.21670 | 22.11636 | 36110 ft | 499 kts | 98° |
| 2026-05-07 01:45 | 36.20327 | 22.20046 | 36125 ft | 497 kts | 98° |
| 2026-05-07 01:46 | 36.18978 | 22.28415 | 36123 ft | 495 kts | 98° |
| 2026-05-07 01:46 | 36.17617 | 22.36754 | 36120 ft | 494 kts | 98° |
| 2026-05-07 01:47 | 36.16264 | 22.45074 | 36117 ft | 493 kts | 98° |
| 2026-05-07 01:47 | 36.14912 | 22.53374 | 36128 ft | 491 kts | 98° |
| 2026-05-07 01:48 | 36.13549 | 22.61639 | 36124 ft | 490 kts | 98° |
| 2026-05-07 01:48 | 36.12181 | 22.69888 | 36118 ft | 489 kts | 98° |
| 2026-05-07 01:49 | 36.10819 | 22.78119 | 36107 ft | 488 kts | 98° |
| 2026-05-07 01:49 | 36.09461 | 22.86325 | 36134 ft | 486 kts | 98° |
| 2026-05-07 01:50 | 36.08094 | 22.94486 | 36130 ft | 484 kts | 98° |
| 2026-05-07 01:50 | 36.06728 | 23.02610 | 36122 ft | 482 kts | 98° |
| 2026-05-07 01:51 | 36.05366 | 23.10718 | 36127 ft | 481 kts | 98° |
| 2026-05-07 01:51 | 36.03999 | 23.18800 | 36126 ft | 480 kts | 98° |
| 2026-05-07 01:52 | 36.02625 | 23.26848 | 36118 ft | 478 kts | 98° |
| 2026-05-07 01:52 | 36.01252 | 23.34876 | 36114 ft | 477 kts | 98° |
| 2026-05-07 01:53 | 35.99878 | 23.42890 | 36117 ft | 477 kts | 98° |
| 2026-05-07 01:53 | 35.98502 | 23.50886 | 36123 ft | 475 kts | 98° |
| 2026-05-07 01:54 | 35.97120 | 23.58909 | 36117 ft | 474 kts | 98° |
| 2026-05-07 01:54 | 35.95750 | 23.66805 | 36110 ft | 473 kts | 98° |
| 2026-05-07 01:55 | 35.94363 | 23.74740 | 36107 ft | 473 kts | 98° |
| 2026-05-07 01:55 | 35.92973 | 23.82661 | 36119 ft | 472 kts | 99° |
| 2026-05-07 01:56 | 35.91573 | 23.90607 | 36117 ft | 470 kts | 99° |
| 2026-05-07 01:56 | 35.90185 | 23.98485 | 36113 ft | 470 kts | 99° |
| 2026-05-07 01:57 | 35.88787 | 24.06351 | 36111 ft | 469 kts | 99° |
| 2026-05-07 01:57 | 35.87386 | 24.14205 | 36122 ft | 468 kts | 100° |
| 2026-05-07 01:58 | 35.85983 | 24.22037 | 36119 ft | 468 kts | 100° |
| 2026-05-07 01:58 | 35.84572 | 24.29912 | 36116 ft | 467 kts | 100° |
| 2026-05-07 01:59 | 35.83163 | 24.37726 | 36108 ft | 467 kts | 100° |
| 2026-05-07 01:59 | 35.81752 | 24.45527 | 36121 ft | 466 kts | 100° |
| 2026-05-07 02:00 | 35.80338 | 24.53318 | 36116 ft | 466 kts | 100° |
| 2026-05-07 02:00 | 35.78915 | 24.61098 | 36114 ft | 465 kts | 100° |
| 2026-05-07 02:01 | 35.77497 | 24.68870 | 36115 ft | 465 kts | 100° |
| 2026-05-07 02:01 | 35.76074 | 24.76634 | 36111 ft | 465 kts | 100° |
| 2026-05-07 02:02 | 35.74646 | 24.84399 | 36112 ft | 465 kts | 100° |
| 2026-05-07 02:02 | 35.73207 | 24.92163 | 36112 ft | 465 kts | 101° |
| 2026-05-07 02:03 | 35.71762 | 24.99922 | 36103 ft | 465 kts | 101° |
| 2026-05-07 02:03 | 35.70524 | 25.07719 | 36116 ft | 464 kts | 97° |
| 2026-05-07 02:04 | 35.69601 | 25.15560 | 36119 ft | 463 kts | 95° |
| 2026-05-07 02:04 | 35.68685 | 25.23398 | 36122 ft | 463 kts | 96° |
| 2026-05-07 02:05 | 35.67855 | 25.29898 | 36122 ft | 463 kts | 97° |
| 2026-05-07 02:05 | 35.66813 | 25.37707 | 36127 ft | 462 kts | 97° |
| 2026-05-07 02:06 | 35.65770 | 25.45498 | 36122 ft | 462 kts | 97° |
| 2026-05-07 02:06 | 35.64738 | 25.53286 | 36125 ft | 461 kts | 97° |
| 2026-05-07 02:07 | 35.63704 | 25.61067 | 36125 ft | 461 kts | 97° |
| 2026-05-07 02:07 | 35.62147 | 25.72727 | 36134 ft | 460 kts | 97° |
| 2026-05-07 02:08 | 35.61104 | 25.80482 | 36131 ft | 459 kts | 97° |
| 2026-05-07 02:08 | 35.60064 | 25.88220 | 36128 ft | 459 kts | 97° |
| 2026-05-07 02:09 | 35.59010 | 25.95951 | 36134 ft | 458 kts | 97° |
| 2026-05-07 02:09 | 35.57948 | 26.03667 | 36131 ft | 458 kts | 97° |
| 2026-05-07 02:10 | 35.56883 | 26.11369 | 36124 ft | 457 kts | 98° |
| 2026-05-07 02:10 | 35.55819 | 26.19054 | 36119 ft | 456 kts | 98° |
| 2026-05-07 02:11 | 35.54753 | 26.26738 | 36115 ft | 456 kts | 98° |
| 2026-05-07 02:11 | 35.53688 | 26.34423 | 36120 ft | 456 kts | 98° |
| 2026-05-07 02:12 | 35.52614 | 26.42104 | 36123 ft | 457 kts | 98° |
| 2026-05-07 02:12 | 35.51530 | 26.49780 | 36122 ft | 457 kts | 98° |
| 2026-05-07 02:13 | 35.50438 | 26.57505 | 36119 ft | 456 kts | 98° |
| 2026-05-07 02:13 | 35.49345 | 26.65173 | 36121 ft | 457 kts | 98° |
| 2026-05-07 02:14 | 35.48251 | 26.72857 | 36112 ft | 457 kts | 98° |
| 2026-05-07 02:14 | 35.47151 | 26.80531 | 36124 ft | 457 kts | 98° |
| 2026-05-07 02:15 | 35.46037 | 26.88195 | 36126 ft | 457 kts | 98° |
| 2026-05-07 02:15 | 35.44924 | 26.95925 | 36114 ft | 457 kts | 98° |
| 2026-05-07 02:16 | 35.43810 | 27.03609 | 36125 ft | 458 kts | 98° |
| 2026-05-07 02:16 | 35.42685 | 27.11291 | 36123 ft | 458 kts | 98° |
| 2026-05-07 02:17 | 35.41544 | 27.19014 | 36130 ft | 458 kts | 98° |
| 2026-05-07 02:17 | 35.40416 | 27.26691 | 36120 ft | 458 kts | 98° |
| 2026-05-07 02:18 | 35.39283 | 27.34368 | 36131 ft | 458 kts | 98° |
| 2026-05-07 02:18 | 35.38134 | 27.42046 | 36126 ft | 458 kts | 98° |
| 2026-05-07 02:19 | 35.36975 | 27.49729 | 36120 ft | 459 kts | 98° |
| 2026-05-07 02:19 | 35.35823 | 27.57414 | 36111 ft | 459 kts | 98° |
| 2026-05-07 02:20 | 35.34668 | 27.65102 | 36109 ft | 459 kts | 98° |
| 2026-05-07 02:20 | 35.33499 | 27.72833 | 36107 ft | 459 kts | 98° |
| 2026-05-07 02:21 | 35.32323 | 27.80510 | 36109 ft | 459 kts | 98° |
| 2026-05-07 02:21 | 35.31137 | 27.88238 | 36106 ft | 459 kts | 98° |
| 2026-05-07 02:22 | 35.29957 | 27.95919 | 36107 ft | 459 kts | 98° |
| 2026-05-07 02:22 | 35.28772 | 28.03600 | 36111 ft | 459 kts | 99° |
| 2026-05-07 02:23 | 35.27582 | 28.11278 | 36106 ft | 459 kts | 98° |
| 2026-05-07 02:23 | 35.26386 | 28.18962 | 36107 ft | 460 kts | 99° |
| 2026-05-07 02:24 | 35.25186 | 28.26647 | 36110 ft | 460 kts | 99° |
| 2026-05-07 02:24 | 35.23971 | 28.34390 | 36114 ft | 460 kts | 99° |
| 2026-05-07 02:25 | 35.22759 | 28.42078 | 36118 ft | 460 kts | 99° |
| 2026-05-07 02:25 | 35.21539 | 28.49767 | 36117 ft | 461 kts | 99° |
| 2026-05-07 02:26 | 35.20314 | 28.57453 | 36115 ft | 460 kts | 99° |
| 2026-05-07 02:26 | 35.19086 | 28.65135 | 36113 ft | 460 kts | 99° |
| 2026-05-07 02:27 | 35.17849 | 28.72811 | 36109 ft | 460 kts | 99° |
| 2026-05-07 02:27 | 35.16594 | 28.80590 | 36112 ft | 460 kts | 99° |
| 2026-05-07 02:28 | 35.15357 | 28.88260 | 36110 ft | 460 kts | 99° |
| 2026-05-07 02:28 | 35.14105 | 28.95917 | 36113 ft | 460 kts | 99° |
| 2026-05-07 02:29 | 35.12855 | 29.03590 | 36107 ft | 460 kts | 99° |
| 2026-05-07 02:29 | 35.11598 | 29.11253 | 36104 ft | 460 kts | 99° |
| 2026-05-07 02:30 | 35.10330 | 29.18909 | 36102 ft | 460 kts | 99° |
| 2026-05-07 02:30 | 35.09060 | 29.26570 | 36109 ft | 460 kts | 99° |
| 2026-05-07 02:31 | 35.07797 | 29.34230 | 36104 ft | 460 kts | 99° |
| 2026-05-07 02:31 | 35.06733 | 29.40647 | 36103 ft | 461 kts | 99° |
| 2026-05-07 02:32 | 35.05451 | 29.48306 | 36106 ft | 461 kts | 99° |
| 2026-05-07 02:32 | 35.04164 | 29.55966 | 36103 ft | 461 kts | 100° |
| 2026-05-07 02:33 | 35.02860 | 29.63676 | 36096 ft | 461 kts | 100° |
| 2026-05-07 02:33 | 35.01564 | 29.71337 | 36118 ft | 461 kts | 99° |
| 2026-05-07 02:34 | 35.00267 | 29.79006 | 36113 ft | 462 kts | 100° |
| 2026-05-07 02:34 | 34.98954 | 29.86676 | 36111 ft | 462 kts | 100° |
| 2026-05-07 02:35 | 34.97638 | 29.94352 | 36104 ft | 463 kts | 100° |
| 2026-05-07 02:35 | 34.96794 | 30.02089 | 36101 ft | 459 kts | 86° |
| 2026-05-07 02:36 | 34.97149 | 30.09840 | 36101 ft | 458 kts | 84° |
| 2026-05-07 02:36 | 34.97519 | 30.17599 | 36096 ft | 459 kts | 84° |
| 2026-05-07 02:37 | 34.97878 | 30.25421 | 36096 ft | 459 kts | 84° |
| 2026-05-07 02:37 | 34.98235 | 30.33194 | 36100 ft | 459 kts | 84° |
| 2026-05-07 02:38 | 34.98578 | 30.40966 | 36106 ft | 459 kts | 84° |
| 2026-05-07 02:38 | 34.98930 | 30.48749 | 36101 ft | 460 kts | 84° |
| 2026-05-07 02:39 | 34.99268 | 30.56541 | 36103 ft | 460 kts | 84° |
| 2026-05-07 02:39 | 34.99608 | 30.64392 | 36114 ft | 461 kts | 84° |
| 2026-05-07 02:40 | 34.99946 | 30.72143 | 36107 ft | 461 kts | 84° |
| 2026-05-07 02:40 | 35.00271 | 30.79954 | 36106 ft | 461 kts | 84° |
| 2026-05-07 02:41 | 35.00593 | 30.87766 | 36108 ft | 462 kts | 84° |
| 2026-05-07 02:41 | 35.00905 | 30.95592 | 36113 ft | 462 kts | 84° |
| 2026-05-07 02:42 | 35.01222 | 31.03422 | 36108 ft | 462 kts | 84° |
| 2026-05-07 02:42 | 35.01548 | 31.11254 | 36108 ft | 463 kts | 84° |
| 2026-05-07 02:43 | 35.01855 | 31.19098 | 36111 ft | 463 kts | 85° |
| 2026-05-07 02:43 | 35.02146 | 31.26946 | 36112 ft | 463 kts | 85° |
| 2026-05-07 02:44 | 35.02437 | 31.34801 | 36119 ft | 464 kts | 85° |
| 2026-05-07 02:44 | 35.02729 | 31.42660 | 36113 ft | 464 kts | 85° |
| 2026-05-07 02:45 | 35.03016 | 31.50583 | 36114 ft | 464 kts | 85° |
| 2026-05-07 02:45 | 35.03300 | 31.58515 | 36107 ft | 465 kts | 85° |
| 2026-05-07 02:46 | 35.03580 | 31.66394 | 36105 ft | 465 kts | 85° |
| 2026-05-07 02:46 | 35.03848 | 31.74285 | 36106 ft | 466 kts | 85° |
| 2026-05-07 02:47 | 35.04107 | 31.82180 | 36108 ft | 466 kts | 85° |
| 2026-05-07 02:47 | 35.04372 | 31.90093 | 36101 ft | 467 kts | 85° |
| 2026-05-07 02:48 | 35.04633 | 31.98013 | 36121 ft | 468 kts | 85° |
| 2026-05-07 02:48 | 35.04880 | 32.05950 | 36110 ft | 468 kts | 85° |
| 2026-05-07 02:49 | 35.05120 | 32.13898 | 36092 ft | 470 kts | 85° |
| 2026-05-07 02:49 | 35.05244 | 32.17889 | 35450 ft | 471 kts | 85° |
| 2026-05-07 02:49 | 35.05372 | 32.21910 | 34300 ft | 474 kts | 85° |
| 2026-05-07 02:50 | 35.05492 | 32.25858 | 33994 ft | 459 kts | 85° |
| 2026-05-07 02:50 | 35.05605 | 32.29741 | 33423 ft | 457 kts | 85° |
| 2026-05-07 02:50 | 35.05717 | 32.33601 | 32881 ft | 454 kts | 85° |
| 2026-05-07 02:50 | 35.05828 | 32.37441 | 32334 ft | 452 kts | 84° |
| 2026-05-07 02:51 | 35.05939 | 32.41264 | 31791 ft | 450 kts | 84° |
| 2026-05-07 02:51 | 35.06049 | 32.45070 | 31264 ft | 448 kts | 84° |
| 2026-05-07 02:51 | 35.06155 | 32.48855 | 30742 ft | 446 kts | 84° |
| 2026-05-07 02:51 | 35.06257 | 32.52629 | 30232 ft | 444 kts | 84° |
| 2026-05-07 02:52 | 35.06356 | 32.56387 | 29677 ft | 441 kts | 84° |
| 2026-05-07 02:52 | 35.06452 | 32.60109 | 29195 ft | 437 kts | 84° |
| 2026-05-07 02:52 | 35.06547 | 32.63797 | 28730 ft | 433 kts | 84° |
| 2026-05-07 02:52 | 35.06644 | 32.67454 | 28258 ft | 429 kts | 84° |
| 2026-05-07 02:53 | 35.06741 | 32.71074 | 27772 ft | 425 kts | 84° |
| 2026-05-07 02:53 | 35.06836 | 32.74669 | 27292 ft | 422 kts | 84° |
| 2026-05-07 02:53 | 35.06928 | 32.78233 | 26811 ft | 419 kts | 84° |
| 2026-05-07 02:53 | 35.07017 | 32.81778 | 26319 ft | 417 kts | 84° |
| 2026-05-07 02:54 | 35.07103 | 32.85304 | 25824 ft | 415 kts | 84° |
| 2026-05-07 02:54 | 35.07188 | 32.88818 | 25310 ft | 414 kts | 84° |
| 2026-05-07 02:54 | 35.07166 | 32.92329 | 24811 ft | 415 kts | 93° |
| 2026-05-07 02:54 | 35.06629 | 32.95793 | 24313 ft | 417 kts | 105° |
| 2026-05-07 02:55 | 35.05690 | 32.99136 | 23819 ft | 416 kts | 108° |
| 2026-05-07 02:55 | 35.04729 | 33.02468 | 23252 ft | 415 kts | 108° |
| 2026-05-07 02:55 | 35.03775 | 33.05782 | 22754 ft | 413 kts | 108° |
| 2026-05-07 02:55 | 35.02825 | 33.09073 | 22264 ft | 410 kts | 108° |
| 2026-05-07 02:56 | 35.01879 | 33.12347 | 21783 ft | 408 kts | 108° |
| 2026-05-07 02:56 | 35.00941 | 33.15600 | 21309 ft | 406 kts | 108° |
| 2026-05-07 02:56 | 35.00006 | 33.18835 | 20832 ft | 404 kts | 108° |
| 2026-05-07 02:56 | 34.99075 | 33.22059 | 20352 ft | 402 kts | 108° |
| 2026-05-07 02:57 | 34.98137 | 33.25311 | 19899 ft | 401 kts | 108° |
| 2026-05-07 02:57 | 34.97214 | 33.28511 | 19436 ft | 399 kts | 108° |
| 2026-05-07 02:57 | 34.96293 | 33.31698 | 18978 ft | 398 kts | 108° |
| 2026-05-07 02:57 | 34.95376 | 33.34871 | 18591 ft | 395 kts | 108° |
| 2026-05-07 02:58 | 34.94458 | 33.38026 | 18160 ft | 393 kts | 109° |
| 2026-05-07 02:58 | 34.93546 | 33.41151 | 17660 ft | 391 kts | 109° |
| 2026-05-07 02:58 | 34.92643 | 33.44244 | 17351 ft | 384 kts | 108° |
| 2026-05-07 02:58 | 34.91751 | 33.47305 | 16887 ft | 383 kts | 108° |
| 2026-05-07 02:59 | 34.90862 | 33.50348 | 16463 ft | 380 kts | 108° |
| 2026-05-07 02:59 | 34.89977 | 33.53371 | 16071 ft | 377 kts | 108° |
| 2026-05-07 02:59 | 34.89101 | 33.56353 | 15539 ft | 371 kts | 108° |
| 2026-05-07 02:59 | 34.88100 | 33.59211 | 14980 ft | 362 kts | 120° |
| 2026-05-07 03:00 | 34.86626 | 33.61622 | 14583 ft | 349 kts | 135° |
| 2026-05-07 03:00 | 34.84786 | 33.63467 | 14118 ft | 339 kts | 150° |
| 2026-05-07 03:00 | 34.82695 | 33.64685 | 13609 ft | 329 kts | 162° |
| 2026-05-07 03:00 | 34.80580 | 33.65640 | 13135 ft | 320 kts | 161° |
| 2026-05-07 03:01 | 34.78518 | 33.66580 | 12687 ft | 312 kts | 161° |
| 2026-05-07 03:01 | 34.76511 | 33.67503 | 12241 ft | 305 kts | 161° |
| 2026-05-07 03:01 | 34.74547 | 33.68407 | 11801 ft | 298 kts | 160° |
| 2026-05-07 03:01 | 34.72597 | 33.69297 | 11346 ft | 292 kts | 163° |
| 2026-05-07 03:02 | 34.71300 | 33.69665 | 11063 ft | 288 kts | 176° |
| 2026-05-07 03:02 | 34.69335 | 33.69514 | 10625 ft | 281 kts | 198° |
| 2026-05-07 03:02 | 34.67591 | 33.68577 | 10302 ft | 266 kts | 218° |
| 2026-05-07 03:02 | 34.66208 | 33.67030 | 9788 ft | 280 kts | 236° |
| 2026-05-07 03:03 | 34.65312 | 33.64922 | 9181 ft | 283 kts | 256° |
| 2026-05-07 03:03 | 34.65069 | 33.62559 | 8589 ft | 284 kts | 276° |
| 2026-05-07 03:03 | 34.65459 | 33.60219 | 8067 ft | 284 kts | 288° |
| 2026-05-07 03:03 | 34.65994 | 33.57896 | 7514 ft | 288 kts | 288° |
| 2026-05-07 03:04 | 34.66529 | 33.55533 | 6957 ft | 292 kts | 288° |
| 2026-05-07 03:04 | 34.67062 | 33.53132 | 6392 ft | 296 kts | 287° |
| 2026-05-07 03:04 | 34.67607 | 33.50704 | 5802 ft | 299 kts | 287° |
| 2026-05-07 03:04 | 34.68171 | 33.48259 | 5223 ft | 301 kts | 287° |
| 2026-05-07 03:05 | 34.68754 | 33.45809 | 4636 ft | 302 kts | 287° |
| 2026-05-07 03:05 | 34.69351 | 33.43356 | 4038 ft | 303 kts | 288° |
| 2026-05-07 03:05 | 34.69950 | 33.40899 | 3476 ft | 303 kts | 288° |
| 2026-05-07 03:05 | 34.70545 | 33.38438 | 2881 ft | 304 kts | 286° |
| 2026-05-07 03:06 | 34.70921 | 33.35913 | 2296 ft | 303 kts | 283° |
| 2026-05-07 03:06 | 34.71560 | 33.33519 | 2030 ft | 291 kts | 290° |
| 2026-05-07 03:06 | 34.71860 | 33.31183 | 2000 ft | 273 kts | 265° |
| 2026-05-07 03:06 | 34.71421 | 33.29022 | 2004 ft | 255 kts | 251° |
| 2026-05-07 03:07 | 34.70540 | 33.27266 | 2009 ft | 238 kts | 222° |
| 2026-05-07 03:07 | 34.69135 | 33.26403 | 2005 ft | 221 kts | 187° |
| 2026-05-07 03:07 | 34.67678 | 33.26568 | 2003 ft | 205 kts | 157° |
| 2026-05-07 03:07 | 34.66524 | 33.27479 | 2016 ft | 193 kts | 130° |
| 2026-05-07 03:08 | 34.65877 | 33.28782 | 2013 ft | 172 kts | 105° |
| 2026-05-07 03:08 | 34.65730 | 33.30150 | 1997 ft | 153 kts | 82° |
| 2026-05-07 03:08 | 34.66052 | 33.31306 | 2023 ft | 139 kts | 56° |
| 2026-05-07 03:08 | 34.66561 | 33.32288 | 2013 ft | 135 kts | 56° |
| 2026-05-07 03:09 | 34.67062 | 33.33256 | 2014 ft | 135 kts | 56° |
| 2026-05-07 03:09 | 34.67560 | 33.34213 | 2013 ft | 134 kts | 56° |
| 2026-05-07 03:09 | 34.68059 | 33.35170 | 2012 ft | 134 kts | 56° |
| 2026-05-07 03:09 | 34.68555 | 33.36124 | 2010 ft | 134 kts | 56° |
| 2026-05-07 03:10 | 34.69051 | 33.37079 | 2010 ft | 134 kts | 56° |
| 2026-05-07 03:10 | 34.69547 | 33.38034 | 2010 ft | 133 kts | 56° |
| 2026-05-07 03:10 | 34.70044 | 33.38990 | 2010 ft | 134 kts | 57° |
| 2026-05-07 03:10 | 34.70544 | 33.39952 | 2014 ft | 135 kts | 56° |
| 2026-05-07 03:11 | 34.71043 | 33.40912 | 2012 ft | 135 kts | 57° |
| 2026-05-07 03:11 | 34.71543 | 33.41877 | 2013 ft | 135 kts | 56° |
| 2026-05-07 03:11 | 34.72046 | 33.42853 | 2014 ft | 135 kts | 57° |
| 2026-05-07 03:11 | 34.72545 | 33.43814 | 2010 ft | 134 kts | 56° |
| 2026-05-07 03:12 | 34.73044 | 33.44774 | 2012 ft | 134 kts | 56° |
| 2026-05-07 03:12 | 34.73632 | 33.45645 | 2014 ft | 134 kts | 44° |
| 2026-05-07 03:12 | 34.74290 | 33.46441 | 2012 ft | 134 kts | 44° |
| 2026-05-07 03:12 | 34.74950 | 33.47240 | 2013 ft | 134 kts | 44° |
| 2026-05-07 03:13 | 34.75607 | 33.48038 | 2012 ft | 133 kts | 44° |
| 2026-05-07 03:13 | 34.76265 | 33.48838 | 2012 ft | 134 kts | 44° |
| 2026-05-07 03:13 | 34.76920 | 33.49636 | 2012 ft | 133 kts | 44° |
| 2026-05-07 03:13 | 34.77575 | 33.50435 | 2011 ft | 134 kts | 44° |
| 2026-05-07 03:14 | 34.78231 | 33.51234 | 2013 ft | 133 kts | 44° |
| 2026-05-07 03:14 | 34.78887 | 33.52032 | 2010 ft | 133 kts | 44° |
| 2026-05-07 03:14 | 34.80244 | 33.53684 | 1745 ft | 138 kts | 43° |
| 2026-05-07 03:15 | 34.80919 | 33.54505 | 1559 ft | 137 kts | 42° |
| 2026-05-07 03:15 | 34.81593 | 33.55327 | 1374 ft | 137 kts | 42° |
| 2026-05-07 03:15 | 34.82268 | 33.56149 | 1188 ft | 139 kts | 43° |
| 2026-05-07 03:15 | 34.82951 | 33.56981 | 1005 ft | 139 kts | 42° |
| 2026-05-07 03:16 | 34.83631 | 33.57814 | 816 ft | 138 kts | 43° |
| 2026-05-07 03:16 | 34.84296 | 33.58639 | 629 ft | 135 kts | 43° |
| 2026-05-07 03:16 | 34.84944 | 33.59465 | 449 ft | 136 kts | 44° |
| 2026-05-07 03:16 | 34.85606 | 33.60300 | 317 ft | 138 kts | 42° |
| 2026-05-07 03:17 | 34.86290 | 33.61114 | 111 ft | 133 kts | 38° |
| 2026-05-07 03:17 | 34.86932 | 33.61841 | 19 ft | 114 kts | 43° |
| 2026-05-07 03:17 | 34.87400 | 33.62415 | 13 ft | 76 kts | 46° |
| 2026-05-07 03:17 | 34.87707 | 33.62795 | 14 ft | 53 kts | 45° |
| 2026-05-07 03:18 | 34.87856 | 33.62935 | 14 ft | 8 kts | 341° |
| 2026-05-07 03:18 | 34.87872 | 33.62902 | 13 ft | 7 kts | 297° |
| 2026-05-07 03:18 | 34.87923 | 33.62831 | 13 ft | 14 kts | 318° |
| 2026-05-07 03:18 | 34.87946 | 33.62805 | 12 ft | 0 kts | 317° |
| 2026-05-07 03:19 | 34.87947 | 33.62805 | 12 ft | 0 kts | 317° |
| 2026-05-07 03:20 | 34.87951 | 33.62800 | 12 ft | 5 kts | 318° |
| 2026-05-07 03:20 | 34.87968 | 33.62790 | 12 ft | 0 kts | 346° |
| 2026-05-07 03:21 | 34.86955 | 33.60862 | 16 ft | 0 kts | 49° |
| 2026-05-07 03:21 | 34.86956 | 33.60863 | 16 ft | 0 kts | 49° |